Racecast

Dominica Alloy

Salida (CO) · 12 · CO D3A3A · Compare head to head

Athlete rating 124.5 2011 XC season
Best race 126.1 XC
Races 37
Seasons 4 2009 — 2012

RankedNation #6642·CO #277·CO D3A #64·Team #10 ?

Speed rating — all races

Cross Country

XC speed rating

2011 XC 123.4

Salida (CO) · Grade 12

Date Meet Event Result Place Rating Difficulty PR/SR Flags
2011-10-29 Arapahoe County Fairgrounds 5000m 20:54 23rd · 2nd on team 126.1 +0.065 ★CR ★R CSR RSR
2011-10-21 Fountain Creek Regional 5000m 20:22.5 9th · 2nd on team 124.4 +0.016 ★PR ★CR R SR CSR RSR
2011-10-14 Pathfinder Park Event Center 5000m 20:43.1 9th · 2nd on team 123.2 +0.028 PR ★CR SR CSR RSR
2011-09-24 The Trails Recreation Center 5000m 21:22.1 11th · 2nd on team 121.8 +0.051 ★CR CSR
2011-09-20 Riverside Park Road 5000m 22:17 3rd · 2nd on team 122.3 +0.103 ★CR CSR
2011-09-17 Gunnison Community School 5000m 20:58 5th · 2nd on team 122.4 +0.043 ★CR SR CSR RSR

2010 XC 119.3

Salida (CO) · Grade 11

Date Meet Event Result Place Rating Difficulty PR/SR Flags
2010-11-20 Toka Sticks Golf Course 5000m 20:56.2 67th · 1st on team 120.7 +0.009 PR ★CR SR CSR
2010-10-30 Arapahoe County Fairgrounds 5000m 21:40.5 40th · 3rd on team 121.6 +0.065 CR R CSR RSR
2010-10-22 Fountain Creek Regional 5000m 21:18.6 17th · 3rd on team 117.8 +0.016 CR SR CSR
2010-10-15 Pathfinder Park Event Center 5000m 21:59.4 13th · 3rd on team 116.8 +0.028 CR CSR
2010-09-18 Gunnison Community School 5000m 21:26.7 7th · 2nd on team 121.4 +0.043 CR R SR CSR RSR
2010-09-03 Julia deKoevend Park 5000m 22:14 39th · 2nd on team 117.5 +0.054 ★CR SR CSR RSR

2009 XC 115.6

Salida (CO) · Grade 10

Date Meet Event Result Place Rating Difficulty PR/SR Flags
2009-11-07 Fossil Ridge HS 5000m 21:16.4 36th · 4th on team 121.0 +0.027 PR ★CR R SR CSR RSR
2009-10-23 Fountain Creek Regional 5000m 21:37.1 18th · 4th on team 118.6 +0.016 PR CR R SR CSR RSR
2009-10-03 Fountain Creek Regional 5000m 22:49.2 57th · 5th on team 110.7 +0.016 PR CR SR CSR
2009-09-22 Riverside Park Road 5000m 24:22 18th · 5th on team 112.4 +0.103 PR CR R SR CSR RSR

Track & Field

TF speed rating

2012 TF 114.3

Salida (CO) · Grade 12

Date Meet Event Result Place Rating Difficulty PR/SR Flags
2012-05-04 Blossom Invitational 2012 3200m 13:45.83 10th · 1st on team 111.0 -0.003
2012-04-28 High Altitude Championships 2012 3200m 13:48.53 9th · 2nd on team 112.4 +0.022
2012-04-21 Gunnison Invitational 2012 1600m 6:03.91 7th · 2nd on team 119.1 +0.019 SR RSR
2012-04-21 Gunnison Invitational 2012 400m 1:12.93 22nd · 1st on team +0.019 ★PR SR
2012-04-13 John Tate Challenge Cup 2012 800m 2:40.27 12th · 2nd on team 116.8 -0.011 ★PR SR RSR
2012-04-13 John Tate Challenge Cup 2012 3200m 12:42.95 5th · 2nd on team 118.8 -0.011 ★PR SR RSR
2012-04-07 Sangre De Cristo Thunderbird Invite 2012 1600m 6:15.47 5th · 2nd on team 115.9 +0.025 SR RSR
2012-03-24 Centennial Bulldog Invitational 2012 1600m 6:19.7 25th · 3rd on team 110.8 -0.011 SR RSR
2012-03-24 Centennial Bulldog Invitational 2012 3200m 13:45.79 16th · 3rd on team 109.9 -0.011 SR

2011 TF 117.7

Salida (CO) · Grade 11

Date Meet Event Result Place Rating Difficulty PR/SR Flags
2011-05-07 Terry Alley Invitational 2011 1600m 6:01.82 5th · 2nd on team 119.0 +0.014
2011-04-29 Coronado Cougar Classic 3200m 12:45.39 14th · 2nd on team 119.4 -0.004 PR SR
2011-04-23 Gunnison Invitational 2011 1600m 5:50.73 4th · 1st on team 123.5 +0.019 ★PR R SR RSR
2011-04-08 John Tate Challenge Cup 2011 1600m 5:57.38 3rd · 1st on team 117.9 -0.011 PR SR
2011-04-08 John Tate Challenge Cup 2011 3200m 12:59.65 2nd · 1st on team 116.4 -0.011 PR SR
2011-03-26 Center Invitational 800m 2:52.44 6th · 2nd on team 111.6 +0.022 PR SR
2011-03-26 Center Invitational 1600m 6:05.61 2nd · 2nd on team 118.5 +0.022 PR SR RSR
2011-03-19 Pueblo Centennial Invitational 3200m 13:03 9th · 2nd on team 115.2 -0.014 PR SR RSR

2010 TF 110.4

Salida (CO) · Grade 10

Date Meet Event Result Place Rating Difficulty PR/SR Flags
2010-05-22 Race results → 3200m 13:11.82 21st · 2nd on team PR SR
2010-05-07 Blossom Invitational 2010 1600m 6:09.17 10th · 2nd on team 114.1 -0.003 PR SR RSR
2010-05-01 High Altitude Championships 2010 3200m 13:50.57 9th · 2nd on team 111.6 +0.022 PR SR RSR
2010-03-27 Florence Husky Invitational 2010 1600m 6:41.8 4th · 1st on team 105.4 -0.003 PR SR RSR